createdAt,value
2023-01-10T06:00:33.903Z,9.50
2023-01-10T06:05:37.557Z,9.90
2023-01-10T06:10:42.210Z,10.00
2023-01-10T06:15:47.345Z,10.10
2023-01-10T06:20:50.964Z,10.10
2023-01-10T06:25:54.606Z,10.20
2023-01-10T06:30:59.603Z,10.20
2023-01-10T06:41:13.914Z,10.30
2023-01-10T06:46:20.523Z,10.40
2023-01-10T07:01:33.581Z,10.50
2023-01-10T07:06:38.574Z,10.50
2023-01-10T07:16:47.527Z,11.10
2023-01-10T07:26:56.554Z,10.70
2023-01-10T07:32:01.559Z,10.70
2023-01-10T07:47:14.823Z,10.80
2023-01-10T07:57:22.408Z,11.10
2023-01-10T08:02:27.555Z,11.00
2023-01-10T08:17:41.523Z,11.10
2023-01-10T08:32:54.660Z,11.50
2023-01-10T08:38:00.087Z,11.10
2023-01-10T08:43:06.301Z,11.50
2023-01-10T08:48:11.486Z,11.60
2023-01-10T08:53:15.239Z,11.60
2023-01-10T08:58:18.872Z,11.50
2023-01-10T09:03:23.868Z,12.10
2023-01-10T09:08:27.570Z,11.80
2023-01-10T09:13:31.699Z,12.20
2023-01-10T09:18:36.731Z,11.90
2023-01-10T09:23:40.589Z,12.50
2023-01-10T09:33:49.857Z,12.30
2023-01-10T09:38:53.479Z,12.80
2023-01-10T09:44:06.063Z,12.70
2023-01-10T09:49:20.483Z,12.70
2023-01-10T09:54:29.330Z,12.70
2023-01-10T09:59:38.170Z,13.30
2023-01-10T10:04:46.875Z,13.10
2023-01-10T10:09:50.567Z,13.40
2023-01-10T10:15:04.498Z,13.70
2023-01-10T10:20:23.631Z,13.70
2023-01-10T10:25:48.398Z,13.90
2023-01-10T10:30:56.763Z,14.00
2023-01-10T10:36:05.997Z,14.10
2023-01-10T10:41:16.963Z,14.10
2023-01-10T10:46:20.709Z,14.20
2023-01-10T10:51:30.375Z,14.30
2023-01-10T11:01:38.069Z,14.40
2023-01-10T11:06:48.985Z,14.50
2023-01-10T11:11:54.294Z,14.60
2023-01-10T11:17:23.889Z,14.50
2023-01-10T11:22:30.111Z,14.70
2023-01-10T11:27:37.547Z,14.70
2023-01-10T11:32:53.215Z,14.90
2023-01-10T11:38:01.782Z,15.00
2023-01-10T11:43:29.559Z,15.20
2023-01-10T11:54:14.858Z,15.00
2023-01-10T11:59:19.893Z,15.00
2023-01-10T12:04:27.356Z,15.10
2023-01-10T12:09:36.349Z,15.20
2023-01-10T12:14:39.968Z,15.20
2023-01-10T12:19:44.970Z,15.60
2023-01-10T12:24:51.465Z,15.20
2023-01-10T12:30:02.898Z,15.70
2023-01-10T12:35:15.160Z,14.90
2023-01-10T12:40:26.571Z,15.20
2023-01-10T12:45:36.662Z,15.40
2023-01-10T12:50:45.109Z,15.40
2023-01-10T12:55:49.454Z,15.30
2023-01-10T13:00:56.353Z,15.30
2023-01-10T13:06:02.405Z,15.60
2023-01-10T13:11:10.757Z,15.20
2023-01-10T13:16:31.192Z,15.30
2023-01-10T13:21:36.809Z,15.30
2023-01-10T13:26:51.081Z,15.50
2023-01-10T13:37:11.129Z,15.50
2023-01-10T13:42:48.436Z,15.50
2023-01-10T13:48:04.116Z,15.50
2023-01-10T13:53:48.239Z,15.50
2023-01-10T13:59:10.668Z,15.50
2023-01-10T14:04:21.862Z,15.50
2023-01-10T14:09:45.765Z,15.50
2023-01-10T14:14:57.529Z,15.60
2023-01-10T14:20:08.902Z,15.50
2023-01-10T14:25:19.978Z,15.10
2023-01-10T14:30:28.737Z,15.50
2023-01-10T14:35:37.988Z,15.50
2023-01-10T14:40:45.127Z,15.50
2023-01-10T14:45:58.601Z,15.50
2023-01-10T14:51:21.010Z,15.40
2023-01-10T14:56:26.819Z,15.40
2023-01-10T15:01:32.240Z,15.00
2023-01-10T15:06:54.859Z,15.10
2023-01-10T15:12:01.538Z,13.50
2023-01-10T15:17:09.834Z,14.80
2023-01-10T15:22:32.288Z,14.90
2023-01-10T15:27:40.236Z,15.30
2023-01-10T15:32:45.631Z,14.60
2023-01-10T15:37:53.464Z,14.50
2023-01-10T15:43:12.919Z,14.70
2023-01-10T15:48:30.555Z,14.90
2023-01-10T15:54:03.270Z,14.90
2023-01-10T15:59:20.191Z,15.30
2023-01-10T16:04:25.281Z,14.50
2023-01-10T16:14:33.652Z,14.40
2023-01-10T16:19:38.470Z,14.80
2023-01-10T16:24:43.732Z,15.30
2023-01-10T16:29:47.312Z,15.20
2023-01-10T16:34:52.269Z,14.70
2023-01-10T16:39:57.618Z,15.20
2023-01-10T16:45:01.260Z,14.40
2023-01-10T16:50:07.028Z,14.60
2023-01-10T16:55:16.269Z,14.50
2023-01-10T17:00:20.858Z,15.10
2023-01-10T17:05:25.950Z,15.20
2023-01-10T17:10:31.124Z,14.70
2023-01-10T17:15:36.699Z,15.00
2023-01-10T17:20:41.818Z,14.80
2023-01-10T17:25:47.287Z,14.50
2023-01-10T17:30:50.916Z,14.50
2023-01-10T17:35:57.240Z,14.90
2023-01-10T17:41:03.085Z,15.40
2023-01-10T17:46:07.241Z,14.90
2023-01-10T17:51:13.387Z,14.90
2023-01-10T18:01:25.232Z,14.80
2023-01-10T18:06:30.706Z,15.00
2023-01-10T18:21:43.740Z,14.80
2023-01-10T18:26:47.900Z,14.40
2023-01-10T18:31:51.513Z,15.10
2023-01-10T18:36:56.527Z,14.90
2023-01-10T18:42:00.149Z,15.20
2023-01-10T18:47:03.744Z,15.00
2023-01-10T18:52:08.703Z,14.60
2023-01-10T18:57:12.560Z,15.00
2023-01-10T19:02:16.852Z,14.80
2023-01-10T19:07:21.848Z,14.70
2023-01-10T19:17:30.834Z,14.60
2023-01-10T19:22:35.780Z,14.50
2023-01-10T19:32:43.267Z,14.20
2023-01-10T19:37:48.931Z,14.60
2023-01-10T19:53:01.950Z,14.50
2023-01-10T20:38:41.805Z,14.00
2023-01-10T20:48:50.793Z,14.40
2023-01-10T21:24:25.268Z,14.40
2023-01-10T22:10:06.690Z,14.40
2023-01-10T22:25:21.962Z,14.40
2023-01-10T22:35:29.628Z,14.70
2023-01-10T22:40:35.672Z,14.50
2023-01-10T22:45:42.065Z,14.40
2023-01-10T22:50:49.934Z,14.40
2023-01-10T22:55:55.995Z,14.60
2023-01-10T23:00:59.590Z,14.50
2023-01-10T23:11:09.291Z,14.60
2023-01-10T23:16:15.848Z,15.10
2023-01-10T23:21:19.811Z,14.70
2023-01-10T23:26:25.338Z,14.70
